sensor_id;sensor_type;location;lat;lon;timestamp;temperature;humidity
19033;DHT22;9649;51.042;13.804;2022-10-31T00:02:59;11.10;99.90
19033;DHT22;9649;51.042;13.804;2022-10-31T00:08:03;11.10;99.90
19033;DHT22;9649;51.042;13.804;2022-10-31T00:13:06;11.00;99.90
19033;DHT22;9649;51.042;13.804;2022-10-31T00:18:10;11.10;99.90
19033;DHT22;9649;51.042;13.804;2022-10-31T00:23:13;11.10;99.90
19033;DHT22;9649;51.042;13.804;2022-10-31T00:28:16;11.10;99.90
19033;DHT22;9649;51.042;13.804;2022-10-31T00:33:21;11.00;99.90
19033;DHT22;9649;51.042;13.804;2022-10-31T00:38:24;10.90;99.90
19033;DHT22;9649;51.042;13.804;2022-10-31T00:43:26;10.90;99.90
19033;DHT22;9649;51.042;13.804;2022-10-31T00:48:31;11.00;99.90
19033;DHT22;9649;51.042;13.804;2022-10-31T00:53:34;10.80;99.90
19033;DHT22;9649;51.042;13.804;2022-10-31T00:58:37;10.80;99.90
19033;DHT22;9649;51.042;13.804;2022-10-31T01:03:41;10.80;99.90
19033;DHT22;9649;51.042;13.804;2022-10-31T01:08:44;10.90;99.90
19033;DHT22;9649;51.042;13.804;2022-10-31T01:13:51;10.90;99.90
19033;DHT22;9649;51.042;13.804;2022-10-31T01:18:55;10.70;99.90
19033;DHT22;9649;51.042;13.804;2022-10-31T01:23:59;10.60;99.90
19033;DHT22;9649;51.042;13.804;2022-10-31T01:29:05;10.50;99.90
19033;DHT22;9649;51.042;13.804;2022-10-31T01:34:13;10.50;99.90
19033;DHT22;9649;51.042;13.804;2022-10-31T01:39:16;10.50;99.90
19033;DHT22;9649;51.042;13.804;2022-10-31T01:44:48;10.40;99.90
19033;DHT22;9649;51.042;13.804;2022-10-31T01:49:55;10.40;99.90
19033;DHT22;9649;51.042;13.804;2022-10-31T01:55:02;10.30;99.90
19033;DHT22;9649;51.042;13.804;2022-10-31T02:00:09;10.50;99.90
19033;DHT22;9649;51.042;13.804;2022-10-31T02:05:16;10.40;99.90
19033;DHT22;9649;51.042;13.804;2022-10-31T02:10:21;10.20;99.90
19033;DHT22;9649;51.042;13.804;2022-10-31T02:15:25;10.10;99.90
19033;DHT22;9649;51.042;13.804;2022-10-31T02:20:32;10.00;99.90
19033;DHT22;9649;51.042;13.804;2022-10-31T02:25:51;9.90;99.90
19033;DHT22;9649;51.042;13.804;2022-10-31T02:31:12;9.90;99.90
19033;DHT22;9649;51.042;13.804;2022-10-31T02:36:22;9.90;99.90
19033;DHT22;9649;51.042;13.804;2022-10-31T02:41:32;9.70;99.90
19033;DHT22;9649;51.042;13.804;2022-10-31T02:46:44;9.70;99.90
19033;DHT22;9649;51.042;13.804;2022-10-31T02:51:51;9.60;99.90
19033;DHT22;9649;51.042;13.804;2022-10-31T02:56:57;9.60;99.90
19033;DHT22;9649;51.042;13.804;2022-10-31T03:02:12;9.60;99.90
19033;DHT22;9649;51.042;13.804;2022-10-31T03:07:23;9.60;99.90
19033;DHT22;9649;51.042;13.804;2022-10-31T03:12:30;9.60;99.90
19033;DHT22;9649;51.042;13.804;2022-10-31T03:17:43;9.60;99.90
19033;DHT22;9649;51.042;13.804;2022-10-31T03:22:48;9.50;99.90
19033;DHT22;9649;51.042;13.804;2022-10-31T03:27:51;9.70;99.90
19033;DHT22;9649;51.042;13.804;2022-10-31T03:32:57;9.80;99.90
19033;DHT22;9649;51.042;13.804;2022-10-31T03:38:03;9.80;99.90
19033;DHT22;9649;51.042;13.804;2022-10-31T03:43:12;9.70;99.90
19033;DHT22;9649;51.042;13.804;2022-10-31T03:48:19;9.70;99.90
19033;DHT22;9649;51.042;13.804;2022-10-31T03:53:25;9.50;99.90
19033;DHT22;9649;51.042;13.804;2022-10-31T03:58:33;9.40;99.90
19033;DHT22;9649;51.042;13.804;2022-10-31T04:03:41;9.30;99.90
19033;DHT22;9649;51.042;13.804;2022-10-31T04:08:48;9.30;99.90
19033;DHT22;9649;51.042;13.804;2022-10-31T04:13:51;9.10;99.90
19033;DHT22;9649;51.042;13.804;2022-10-31T04:18:57;9.10;99.90
19033;DHT22;9649;51.042;13.804;2022-10-31T04:23:59;9.10;99.90
19033;DHT22;9649;51.042;13.804;2022-10-31T04:29:02;8.90;99.90
19033;DHT22;9649;51.042;13.804;2022-10-31T04:34:06;8.90;99.90
19033;DHT22;9649;51.042;13.804;2022-10-31T04:39:09;8.80;99.90
19033;DHT22;9649;51.042;13.804;2022-10-31T04:44:12;8.70;99.90
19033;DHT22;9649;51.042;13.804;2022-10-31T04:49:16;8.70;99.90
19033;DHT22;9649;51.042;13.804;2022-10-31T04:54:19;8.80;99.90
19033;DHT22;9649;51.042;13.804;2022-10-31T04:59:22;8.80;99.90
19033;DHT22;9649;51.042;13.804;2022-10-31T05:04:26;8.90;99.90
19033;DHT22;9649;51.042;13.804;2022-10-31T05:09:29;8.70;99.90
19033;DHT22;9649;51.042;13.804;2022-10-31T05:14:32;8.70;99.90
19033;DHT22;9649;51.042;13.804;2022-10-31T05:19:36;8.60;99.90
19033;DHT22;9649;51.042;13.804;2022-10-31T05:24:39;8.80;99.90
19033;DHT22;9649;51.042;13.804;2022-10-31T05:29:41;8.80;99.90
19033;DHT22;9649;51.042;13.804;2022-10-31T05:34:46;8.70;99.90
19033;DHT22;9649;51.042;13.804;2022-10-31T05:39:48;8.60;99.90
19033;DHT22;9649;51.042;13.804;2022-10-31T05:44:51;8.50;99.90
19033;DHT22;9649;51.042;13.804;2022-10-31T05:49:55;8.50;99.90
19033;DHT22;9649;51.042;13.804;2022-10-31T05:54:58;8.60;99.90
19033;DHT22;9649;51.042;13.804;2022-10-31T06:00:01;8.60;99.90
19033;DHT22;9649;51.042;13.804;2022-10-31T06:05:06;8.60;99.90
19033;DHT22;9649;51.042;13.804;2022-10-31T06:10:09;8.70;99.90
19033;DHT22;9649;51.042;13.804;2022-10-31T06:15:12;8.80;99.90
19033;DHT22;9649;51.042;13.804;2022-10-31T06:20:20;8.90;99.90
19033;DHT22;9649;51.042;13.804;2022-10-31T06:25:23;9.00;99.90
19033;DHT22;9649;51.042;13.804;2022-10-31T06:30:26;9.00;99.90
19033;DHT22;9649;51.042;13.804;2022-10-31T06:35:30;9.10;99.90
19033;DHT22;9649;51.042;13.804;2022-10-31T06:40:33;9.20;99.90
19033;DHT22;9649;51.042;13.804;2022-10-31T06:45:36;9.30;99.90
19033;DHT22;9649;51.042;13.804;2022-10-31T06:50:40;9.50;99.90
19033;DHT22;9649;51.042;13.804;2022-10-31T06:55:43;9.60;99.90
19033;DHT22;9649;51.042;13.804;2022-10-31T07:00:46;9.90;99.90
19033;DHT22;9649;51.042;13.804;2022-10-31T07:05:50;10.10;99.90
19033;DHT22;9649;51.042;13.804;2022-10-31T07:10:54;10.40;99.90
19033;DHT22;9649;51.042;13.804;2022-10-31T07:16:00;11.10;99.90
19033;DHT22;9649;51.042;13.804;2022-10-31T07:21:05;11.60;99.90
19033;DHT22;9649;51.042;13.804;2022-10-31T07:26:09;13.20;99.90
19033;DHT22;9649;51.042;13.804;2022-10-31T07:31:12;16.10;99.90
19033;DHT22;9649;51.042;13.804;2022-10-31T07:36:16;18.90;99.90
19033;DHT22;9649;51.042;13.804;2022-10-31T07:41:20;21.30;1.00
19033;DHT22;9649;51.042;13.804;2022-10-31T07:46:23;23.20;99.90
19033;DHT22;9649;51.042;13.804;2022-10-31T07:51:27;23.60;74.80
19033;DHT22;9649;51.042;13.804;2022-10-31T07:56:30;24.30;1.00
19033;DHT22;9649;51.042;13.804;2022-10-31T08:01:32;25.60;1.00
19033;DHT22;9649;51.042;13.804;2022-10-31T08:06:37;26.50;1.00
19033;DHT22;9649;51.042;13.804;2022-10-31T08:11:39;27.70;1.00
19033;DHT22;9649;51.042;13.804;2022-10-31T08:16:42;29.00;1.00
19033;DHT22;9649;51.042;13.804;2022-10-31T08:21:46;30.40;1.00
19033;DHT22;9649;51.042;13.804;2022-10-31T08:26:52;32.00;1.00
19033;DHT22;9649;51.042;13.804;2022-10-31T08:31:57;32.30;1.00
19033;DHT22;9649;51.042;13.804;2022-10-31T08:37:01;32.80;99.90
19033;DHT22;9649;51.042;13.804;2022-10-31T08:42:04;34.10;99.90
19033;DHT22;9649;51.042;13.804;2022-10-31T08:47:07;35.40;99.90
19033;DHT22;9649;51.042;13.804;2022-10-31T08:52:11;35.90;99.90
19033;DHT22;9649;51.042;13.804;2022-10-31T08:57:16;36.20;99.90
19033;DHT22;9649;51.042;13.804;2022-10-31T09:02:19;36.70;99.90
19033;DHT22;9649;51.042;13.804;2022-10-31T09:07:23;38.20;99.90
19033;DHT22;9649;51.042;13.804;2022-10-31T09:12:25;38.50;99.90
19033;DHT22;9649;51.042;13.804;2022-10-31T09:17:28;36.40;99.90
19033;DHT22;9649;51.042;13.804;2022-10-31T09:22:32;36.60;99.90
19033;DHT22;9649;51.042;13.804;2022-10-31T09:27:35;35.80;99.90
19033;DHT22;9649;51.042;13.804;2022-10-31T09:32:38;38.10;99.90
19033;DHT22;9649;51.042;13.804;2022-10-31T09:37:42;40.50;99.90
19033;DHT22;9649;51.042;13.804;2022-10-31T09:42:53;41.20;99.90
19033;DHT22;9649;51.042;13.804;2022-10-31T09:48:17;41.10;99.90
19033;DHT22;9649;51.042;13.804;2022-10-31T09:53:27;42.10;99.90
19033;DHT22;9649;51.042;13.804;2022-10-31T09:58:36;42.60;99.90
19033;DHT22;9649;51.042;13.804;2022-10-31T10:03:43;43.10;99.90
19033;DHT22;9649;51.042;13.804;2022-10-31T10:08:49;43.60;99.90
19033;DHT22;9649;51.042;13.804;2022-10-31T10:14:03;44.60;99.90
19033;DHT22;9649;51.042;13.804;2022-10-31T10:19:17;44.70;99.90
19033;DHT22;9649;51.042;13.804;2022-10-31T10:24:30;44.70;99.90
19033;DHT22;9649;51.042;13.804;2022-10-31T10:29:40;43.60;99.90
19033;DHT22;9649;51.042;13.804;2022-10-31T10:34:49;44.40;99.90
19033;DHT22;9649;51.042;13.804;2022-10-31T10:39:56;45.60;99.90
19033;DHT22;9649;51.042;13.804;2022-10-31T10:45:14;45.30;99.90
19033;DHT22;9649;51.042;13.804;2022-10-31T10:50:36;46.40;99.90
19033;DHT22;9649;51.042;13.804;2022-10-31T10:55:49;47.20;99.90
19033;DHT22;9649;51.042;13.804;2022-10-31T11:00:54;47.40;99.90
19033;DHT22;9649;51.042;13.804;2022-10-31T11:05:58;46.90;99.90
19033;DHT22;9649;51.042;13.804;2022-10-31T11:11:10;46.40;99.90
19033;DHT22;9649;51.042;13.804;2022-10-31T11:16:29;46.50;99.90
19033;DHT22;9649;51.042;13.804;2022-10-31T11:21:37;47.50;99.90
19033;DHT22;9649;51.042;13.804;2022-10-31T11:26:43;45.80;99.90
19033;DHT22;9649;51.042;13.804;2022-10-31T11:31:46;46.20;99.90
19033;DHT22;9649;51.042;13.804;2022-10-31T11:36:50;46.90;99.90
19033;DHT22;9649;51.042;13.804;2022-10-31T11:41:54;46.70;99.90
19033;DHT22;9649;51.042;13.804;2022-10-31T11:46:59;46.40;99.90
19033;DHT22;9649;51.042;13.804;2022-10-31T11:52:05;47.00;99.90
19033;DHT22;9649;51.042;13.804;2022-10-31T11:57:24;46.20;99.90
19033;DHT22;9649;51.042;13.804;2022-10-31T12:02:27;44.70;99.90
19033;DHT22;9649;51.042;13.804;2022-10-31T12:07:30;44.90;99.90
19033;DHT22;9649;51.042;13.804;2022-10-31T12:12:48;41.70;99.90
19033;DHT22;9649;51.042;13.804;2022-10-31T12:18:17;39.70;99.90
19033;DHT22;9649;51.042;13.804;2022-10-31T12:23:28;40.00;99.90
19033;DHT22;9649;51.042;13.804;2022-10-31T12:28:45;40.00;99.90
19033;DHT22;9649;51.042;13.804;2022-10-31T12:34:03;39.50;99.90
19033;DHT22;9649;51.042;13.804;2022-10-31T12:39:25;40.20;99.90
19033;DHT22;9649;51.042;13.804;2022-10-31T12:45:00;40.90;99.90
19033;DHT22;9649;51.042;13.804;2022-10-31T12:50:26;38.70;99.90
19033;DHT22;9649;51.042;13.804;2022-10-31T12:55:44;38.60;99.90
19033;DHT22;9649;51.042;13.804;2022-10-31T13:00:57;40.50;99.90
19033;DHT22;9649;51.042;13.804;2022-10-31T13:06:07;40.30;99.90
19033;DHT22;9649;51.042;13.804;2022-10-31T13:11:14;39.90;99.90
19033;DHT22;9649;51.042;13.804;2022-10-31T13:16:22;39.20;99.90
19033;DHT22;9649;51.042;13.804;2022-10-31T13:21:32;38.90;99.90
19033;DHT22;9649;51.042;13.804;2022-10-31T13:26:38;38.20;99.90
19033;DHT22;9649;51.042;13.804;2022-10-31T13:31:44;39.40;99.90
19033;DHT22;9649;51.042;13.804;2022-10-31T13:36:53;39.30;99.90
19033;DHT22;9649;51.042;13.804;2022-10-31T13:42:02;35.70;99.90
19033;DHT22;9649;51.042;13.804;2022-10-31T13:47:23;34.60;99.90
19033;DHT22;9649;51.042;13.804;2022-10-31T13:52:26;35.10;99.90
19033;DHT22;9649;51.042;13.804;2022-10-31T13:57:32;37.30;99.90
19033;DHT22;9649;51.042;13.804;2022-10-31T14:02:45;37.10;99.90
19033;DHT22;9649;51.042;13.804;2022-10-31T14:07:49;35.30;99.90
19033;DHT22;9649;51.042;13.804;2022-10-31T14:13:02;34.20;99.90
19033;DHT22;9649;51.042;13.804;2022-10-31T14:18:20;34.30;99.90
19033;DHT22;9649;51.042;13.804;2022-10-31T14:23:36;34.00;99.90
19033;DHT22;9649;51.042;13.804;2022-10-31T14:28:41;32.80;99.90
19033;DHT22;9649;51.042;13.804;2022-10-31T14:33:46;31.20;99.90
19033;DHT22;9649;51.042;13.804;2022-10-31T14:38:53;29.40;99.90
19033;DHT22;9649;51.042;13.804;2022-10-31T14:44:34;28.50;99.90
19033;DHT22;9649;51.042;13.804;2022-10-31T14:50:04;27.50;99.90
19033;DHT22;9649;51.042;13.804;2022-10-31T14:55:12;25.80;1.00
19033;DHT22;9649;51.042;13.804;2022-10-31T15:00:17;24.30;1.00
19033;DHT22;9649;51.042;13.804;2022-10-31T15:05:22;23.20;1.00
19033;DHT22;9649;51.042;13.804;2022-10-31T15:10:28;22.40;1.00
19033;DHT22;9649;51.042;13.804;2022-10-31T15:15:33;21.70;1.00
19033;DHT22;9649;51.042;13.804;2022-10-31T15:20:42;21.10;1.00
19033;DHT22;9649;51.042;13.804;2022-10-31T15:25:46;20.80;99.90
19033;DHT22;9649;51.042;13.804;2022-10-31T15:30:50;20.30;1.00
19033;DHT22;9649;51.042;13.804;2022-10-31T15:35:57;19.80;1.00
19033;DHT22;9649;51.042;13.804;2022-10-31T15:41:02;19.50;99.90
19033;DHT22;9649;51.042;13.804;2022-10-31T15:46:07;19.10;1.00
19033;DHT22;9649;51.042;13.804;2022-10-31T15:51:13;19.10;1.00
19033;DHT22;9649;51.042;13.804;2022-10-31T15:56:20;18.70;99.90
19033;DHT22;9649;51.042;13.804;2022-10-31T16:01:25;18.40;99.90
19033;DHT22;9649;51.042;13.804;2022-10-31T16:06:31;18.10;1.00
19033;DHT22;9649;51.042;13.804;2022-10-31T16:11:36;17.90;1.00
19033;DHT22;9649;51.042;13.804;2022-10-31T16:16:41;17.70;1.00
19033;DHT22;9649;51.042;13.804;2022-10-31T16:21:47;17.70;1.00
19033;DHT22;9649;51.042;13.804;2022-10-31T16:26:51;17.50;1.00
19033;DHT22;9649;51.042;13.804;2022-10-31T16:31:55;17.20;1.00
19033;DHT22;9649;51.042;13.804;2022-10-31T16:37:01;17.30;1.00
19033;DHT22;9649;51.042;13.804;2022-10-31T16:42:04;17.20;1.00
19033;DHT22;9649;51.042;13.804;2022-10-31T16:47:11;16.90;1.00
19033;DHT22;9649;51.042;13.804;2022-10-31T16:52:16;17.10;1.00
19033;DHT22;9649;51.042;13.804;2022-10-31T16:57:28;16.90;1.00
19033;DHT22;9649;51.042;13.804;2022-10-31T17:02:32;16.80;1.00
19033;DHT22;9649;51.042;13.804;2022-10-31T17:07:37;16.70;1.00
19033;DHT22;9649;51.042;13.804;2022-10-31T17:12:42;16.60;1.00
19033;DHT22;9649;51.042;13.804;2022-10-31T17:17:46;16.40;1.00
19033;DHT22;9649;51.042;13.804;2022-10-31T17:22:50;16.10;21.50
19033;DHT22;9649;51.042;13.804;2022-10-31T17:27:53;15.80;74.90
19033;DHT22;9649;51.042;13.804;2022-10-31T17:32:55;15.80;87.30
19033;DHT22;9649;51.042;13.804;2022-10-31T17:38:00;15.60;99.90
19033;DHT22;9649;51.042;13.804;2022-10-31T17:43:03;15.70;82.30
19033;DHT22;9649;51.042;13.804;2022-10-31T17:48:06;16.00;1.00
19033;DHT22;9649;51.042;13.804;2022-10-31T17:53:12;15.90;10.30
19033;DHT22;9649;51.042;13.804;2022-10-31T17:58:15;15.50;80.10
19033;DHT22;9649;51.042;13.804;2022-10-31T18:03:17;15.30;99.90
19033;DHT22;9649;51.042;13.804;2022-10-31T18:08:25;15.20;99.90
19033;DHT22;9649;51.042;13.804;2022-10-31T18:13:28;15.30;99.90
19033;DHT22;9649;51.042;13.804;2022-10-31T18:18:30;15.30;99.90
19033;DHT22;9649;51.042;13.804;2022-10-31T18:23:34;15.50;53.60
19033;DHT22;9649;51.042;13.804;2022-10-31T18:28:37;15.60;25.10
19033;DHT22;9649;51.042;13.804;2022-10-31T18:33:40;15.40;42.40
19033;DHT22;9649;51.042;13.804;2022-10-31T18:38:45;15.30;61.30
19033;DHT22;9649;51.042;13.804;2022-10-31T18:43:48;15.10;99.90
19033;DHT22;9649;51.042;13.804;2022-10-31T18:48:50;15.00;99.90
19033;DHT22;9649;51.042;13.804;2022-10-31T18:53:57;14.90;99.90
19033;DHT22;9649;51.042;13.804;2022-10-31T18:59:00;14.80;99.90
19033;DHT22;9649;51.042;13.804;2022-10-31T19:04:03;14.70;99.90
19033;DHT22;9649;51.042;13.804;2022-10-31T19:09:08;14.60;99.90
19033;DHT22;9649;51.042;13.804;2022-10-31T19:14:11;14.50;99.90
19033;DHT22;9649;51.042;13.804;2022-10-31T19:19:15;14.30;99.90
19033;DHT22;9649;51.042;13.804;2022-10-31T19:24:20;14.00;99.90
19033;DHT22;9649;51.042;13.804;2022-10-31T19:29:23;13.80;99.90
19033;DHT22;9649;51.042;13.804;2022-10-31T19:34:26;13.60;99.90
19033;DHT22;9649;51.042;13.804;2022-10-31T19:39:30;13.80;99.90
19033;DHT22;9649;51.042;13.804;2022-10-31T19:44:33;13.60;99.90
19033;DHT22;9649;51.042;13.804;2022-10-31T19:49:36;13.40;99.90
19033;DHT22;9649;51.042;13.804;2022-10-31T19:54:40;13.20;99.90
19033;DHT22;9649;51.042;13.804;2022-10-31T19:59:46;13.20;99.90
19033;DHT22;9649;51.042;13.804;2022-10-31T20:04:49;13.30;99.90
19033;DHT22;9649;51.042;13.804;2022-10-31T20:09:53;13.60;99.90
19033;DHT22;9649;51.042;13.804;2022-10-31T20:14:56;13.60;99.90
19033;DHT22;9649;51.042;13.804;2022-10-31T20:19:59;13.50;99.90
19033;DHT22;9649;51.042;13.804;2022-10-31T20:25:09;13.50;99.90
19033;DHT22;9649;51.042;13.804;2022-10-31T20:30:12;13.60;99.90
19033;DHT22;9649;51.042;13.804;2022-10-31T20:35:16;13.50;99.90
19033;DHT22;9649;51.042;13.804;2022-10-31T20:40:25;13.70;99.90
19033;DHT22;9649;51.042;13.804;2022-10-31T20:45:28;13.60;99.90
19033;DHT22;9649;51.042;13.804;2022-10-31T20:50:30;13.60;99.90
19033;DHT22;9649;51.042;13.804;2022-10-31T20:55:35;13.30;99.90
19033;DHT22;9649;51.042;13.804;2022-10-31T21:00:38;13.20;99.90
19033;DHT22;9649;51.042;13.804;2022-10-31T21:05:40;13.40;99.90
19033;DHT22;9649;51.042;13.804;2022-10-31T21:10:45;13.20;99.90
19033;DHT22;9649;51.042;13.804;2022-10-31T21:15:50;13.10;99.90
19033;DHT22;9649;51.042;13.804;2022-10-31T21:27:28;13.50;99.90
19033;DHT22;9649;51.042;13.804;2022-10-31T21:32:52;13.30;99.90
19033;DHT22;9649;51.042;13.804;2022-10-31T21:38:17;13.10;99.90
19033;DHT22;9649;51.042;13.804;2022-10-31T21:44:01;13.00;99.90
19033;DHT22;9649;51.042;13.804;2022-10-31T21:49:46;12.90;99.90
19033;DHT22;9649;51.042;13.804;2022-10-31T22:06:36;12.40;99.90
19033;DHT22;9649;51.042;13.804;2022-10-31T22:11:56;12.20;99.90
19033;DHT22;9649;51.042;13.804;2022-10-31T22:17:13;12.00;99.90
19033;DHT22;9649;51.042;13.804;2022-10-31T22:22:24;11.90;99.90
19033;DHT22;9649;51.042;13.804;2022-10-31T22:27:41;11.90;99.90
19033;DHT22;9649;51.042;13.804;2022-10-31T22:32:46;11.90;99.90
19033;DHT22;9649;51.042;13.804;2022-10-31T22:38:03;11.90;99.90
19033;DHT22;9649;51.042;13.804;2022-10-31T22:43:21;11.70;99.90
19033;DHT22;9649;51.042;13.804;2022-10-31T22:48:33;11.80;99.90
19033;DHT22;9649;51.042;13.804;2022-10-31T22:53:56;11.70;99.90
19033;DHT22;9649;51.042;13.804;2022-10-31T22:59:22;11.60;99.90
19033;DHT22;9649;51.042;13.804;2022-10-31T23:04:31;11.60;99.90
19033;DHT22;9649;51.042;13.804;2022-10-31T23:09:40;11.80;99.90
19033;DHT22;9649;51.042;13.804;2022-10-31T23:14:51;11.80;99.90
19033;DHT22;9649;51.042;13.804;2022-10-31T23:20:03;12.10;99.90
19033;DHT22;9649;51.042;13.804;2022-10-31T23:25:16;12.30;99.90
19033;DHT22;9649;51.042;13.804;2022-10-31T23:30:37;12.60;99.90
19033;DHT22;9649;51.042;13.804;2022-10-31T23:35:49;13.00;99.90
19033;DHT22;9649;51.042;13.804;2022-10-31T23:40:56;13.30;99.90
19033;DHT22;9649;51.042;13.804;2022-10-31T23:46:02;13.40;99.90
19033;DHT22;9649;51.042;13.804;2022-10-31T23:51:16;13.60;99.90
19033;DHT22;9649;51.042;13.804;2022-10-31T23:56:27;13.70;99.90
